sensor_id;sensor_type;location;lat;lon;timestamp;P1;durP1;ratioP1;P2;durP2;ratioP2
46399;SDS011;32104;50.838;4.388;2023-05-29T00:01:55;7.55;;;3.08;;
46399;SDS011;32104;50.838;4.388;2023-05-29T00:04:20;9.27;;;2.45;;
46399;SDS011;32104;50.838;4.388;2023-05-29T00:06:46;6.85;;;2.70;;
46399;SDS011;32104;50.838;4.388;2023-05-29T00:09:12;10.57;;;3.35;;
46399;SDS011;32104;50.838;4.388;2023-05-29T00:11:38;11.25;;;3.22;;
46399;SDS011;32104;50.838;4.388;2023-05-29T00:14:03;12.63;;;3.95;;
46399;SDS011;32104;50.838;4.388;2023-05-29T00:16:30;13.82;;;4.10;;
46399;SDS011;32104;50.838;4.388;2023-05-29T00:18:55;14.27;;;3.83;;
46399;SDS011;32104;50.838;4.388;2023-05-29T00:21:22;9.77;;;2.88;;
46399;SDS011;32104;50.838;4.388;2023-05-29T00:23:48;11.57;;;3.40;;
46399;SDS011;32104;50.838;4.388;2023-05-29T00:26:14;11.77;;;3.45;;
46399;SDS011;32104;50.838;4.388;2023-05-29T00:28:41;6.90;;;3.13;;
46399;SDS011;32104;50.838;4.388;2023-05-29T00:31:10;15.52;;;3.63;;
46399;SDS011;32104;50.838;4.388;2023-05-29T00:33:36;8.93;;;3.20;;
46399;SDS011;32104;50.838;4.388;2023-05-29T00:36:02;12.63;;;4.43;;
46399;SDS011;32104;50.838;4.388;2023-05-29T00:38:28;8.32;;;3.42;;
46399;SDS011;32104;50.838;4.388;2023-05-29T00:40:54;9.85;;;3.35;;
46399;SDS011;32104;50.838;4.388;2023-05-29T00:43:19;10.38;;;3.42;;
46399;SDS011;32104;50.838;4.388;2023-05-29T00:45:45;11.95;;;3.45;;
46399;SDS011;32104;50.838;4.388;2023-05-29T00:48:11;11.73;;;3.40;;
46399;SDS011;32104;50.838;4.388;2023-05-29T00:50:40;10.82;;;3.67;;
46399;SDS011;32104;50.838;4.388;2023-05-29T00:53:06;12.23;;;3.72;;
46399;SDS011;32104;50.838;4.388;2023-05-29T00:55:33;7.28;;;3.40;;
46399;SDS011;32104;50.838;4.388;2023-05-29T00:57:59;9.38;;;3.53;;
46399;SDS011;32104;50.838;4.388;2023-05-29T01:00:25;8.95;;;3.58;;
46399;SDS011;32104;50.838;4.388;2023-05-29T01:02:51;9.60;;;4.10;;
46399;SDS011;32104;50.838;4.388;2023-05-29T01:05:17;11.75;;;3.22;;
46399;SDS011;32104;50.838;4.388;2023-05-29T01:07:44;11.43;;;3.38;;
46399;SDS011;32104;50.838;4.388;2023-05-29T01:10:10;8.43;;;3.47;;
46399;SDS011;32104;50.838;4.388;2023-05-29T01:12:38;11.70;;;4.03;;
46399;SDS011;32104;50.838;4.388;2023-05-29T01:20:59;20.97;;;4.43;;
46399;SDS011;32104;50.838;4.388;2023-05-29T01:29:12;11.30;;;4.25;;
46399;SDS011;32104;50.838;4.388;2023-05-29T01:31:42;16.38;;;4.00;;
46399;SDS011;32104;50.838;4.388;2023-05-29T01:34:08;8.00;;;3.37;;
46399;SDS011;32104;50.838;4.388;2023-05-29T01:36:34;16.88;;;4.30;;
46399;SDS011;32104;50.838;4.388;2023-05-29T01:39:00;13.70;;;3.60;;
46399;SDS011;32104;50.838;4.388;2023-05-29T01:41:26;14.05;;;4.13;;
46399;SDS011;32104;50.838;4.388;2023-05-29T01:43:55;13.40;;;3.43;;
46399;SDS011;32104;50.838;4.388;2023-05-29T01:46:22;7.57;;;3.63;;
46399;SDS011;32104;50.838;4.388;2023-05-29T01:48:50;12.65;;;4.22;;
46399;SDS011;32104;50.838;4.388;2023-05-29T01:51:17;12.50;;;4.07;;
46399;SDS011;32104;50.838;4.388;2023-05-29T01:53:43;11.27;;;3.35;;
46399;SDS011;32104;50.838;4.388;2023-05-29T01:56:09;14.50;;;4.63;;
46399;SDS011;32104;50.838;4.388;2023-05-29T01:58:35;16.17;;;5.00;;
46399;SDS011;32104;50.838;4.388;2023-05-29T02:01:03;10.70;;;4.40;;
46399;SDS011;32104;50.838;4.388;2023-05-29T02:03:31;16.58;;;3.83;;
46399;SDS011;32104;50.838;4.388;2023-05-29T02:05:57;9.32;;;3.47;;
46399;SDS011;32104;50.838;4.388;2023-05-29T02:08:24;9.45;;;3.40;;
46399;SDS011;32104;50.838;4.388;2023-05-29T02:10:50;8.95;;;3.22;;
46399;SDS011;32104;50.838;4.388;2023-05-29T02:13:16;10.50;;;3.72;;
46399;SDS011;32104;50.838;4.388;2023-05-29T02:15:42;9.70;;;4.20;;
46399;SDS011;32104;50.838;4.388;2023-05-29T02:18:13;11.40;;;3.97;;
46399;SDS011;32104;50.838;4.388;2023-05-29T02:20:39;10.45;;;3.40;;
46399;SDS011;32104;50.838;4.388;2023-05-29T02:23:06;11.68;;;3.90;;
46399;SDS011;32104;50.838;4.388;2023-05-29T02:25:35;13.52;;;3.83;;
46399;SDS011;32104;50.838;4.388;2023-05-29T02:28:01;11.40;;;3.75;;
46399;SDS011;32104;50.838;4.388;2023-05-29T02:30:27;12.52;;;3.20;;
46399;SDS011;32104;50.838;4.388;2023-05-29T02:32:53;15.82;;;3.38;;
46399;SDS011;32104;50.838;4.388;2023-05-29T02:35:20;9.85;;;3.40;;
46399;SDS011;32104;50.838;4.388;2023-05-29T02:37:49;15.10;;;3.08;;
46399;SDS011;32104;50.838;4.388;2023-05-29T02:40:15;7.22;;;2.42;;
46399;SDS011;32104;50.838;4.388;2023-05-29T02:42:42;15.00;;;2.95;;
46399;SDS011;32104;50.838;4.388;2023-05-29T02:45:08;10.35;;;2.85;;
46399;SDS011;32104;50.838;4.388;2023-05-29T02:47:34;8.63;;;2.00;;
46399;SDS011;32104;50.838;4.388;2023-05-29T02:50:00;7.70;;;2.72;;
46399;SDS011;32104;50.838;4.388;2023-05-29T02:52:27;16.15;;;2.45;;
46399;SDS011;32104;50.838;4.388;2023-05-29T02:54:53;14.23;;;2.95;;
46399;SDS011;32104;50.838;4.388;2023-05-29T02:57:22;5.47;;;1.73;;
46399;SDS011;32104;50.838;4.388;2023-05-29T02:59:48;6.53;;;1.67;;
46399;SDS011;32104;50.838;4.388;2023-05-29T03:02:14;6.40;;;1.65;;
46399;SDS011;32104;50.838;4.388;2023-05-29T03:04:39;7.57;;;1.80;;
46399;SDS011;32104;50.838;4.388;2023-05-29T03:07:05;13.85;;;1.95;;
46399;SDS011;32104;50.838;4.388;2023-05-29T03:09:31;12.52;;;1.85;;
46399;SDS011;32104;50.838;4.388;2023-05-29T03:11:58;8.73;;;1.33;;
46399;SDS011;32104;50.838;4.388;2023-05-29T03:14:26;11.43;;;1.73;;
46399;SDS011;32104;50.838;4.388;2023-05-29T03:16:52;4.10;;;1.25;;
46399;SDS011;32104;50.838;4.388;2023-05-29T03:19:19;7.07;;;1.58;;
46399;SDS011;32104;50.838;4.388;2023-05-29T03:21:45;10.77;;;1.90;;
46399;SDS011;32104;50.838;4.388;2023-05-29T03:24:11;7.20;;;2.20;;
46399;SDS011;32104;50.838;4.388;2023-05-29T03:26:38;10.45;;;1.95;;
46399;SDS011;32104;50.838;4.388;2023-05-29T03:29:04;7.80;;;1.48;;
46399;SDS011;32104;50.838;4.388;2023-05-29T03:31:30;8.00;;;1.67;;
46399;SDS011;32104;50.838;4.388;2023-05-29T03:33:56;9.23;;;1.55;;
46399;SDS011;32104;50.838;4.388;2023-05-29T03:36:24;8.82;;;1.80;;
46399;SDS011;32104;50.838;4.388;2023-05-29T03:38:50;14.40;;;1.40;;
46399;SDS011;32104;50.838;4.388;2023-05-29T03:41:15;4.70;;;1.23;;
46399;SDS011;32104;50.838;4.388;2023-05-29T03:43:41;11.60;;;2.90;;
46399;SDS011;32104;50.838;4.388;2023-05-29T03:46:07;12.68;;;1.73;;
46399;SDS011;32104;50.838;4.388;2023-05-29T03:48:33;16.35;;;1.67;;
46399;SDS011;32104;50.838;4.388;2023-05-29T03:50:58;15.13;;;1.67;;
46399;SDS011;32104;50.838;4.388;2023-05-29T03:53:24;7.85;;;1.25;;
46399;SDS011;32104;50.838;4.388;2023-05-29T03:55:50;5.45;;;1.00;;
46399;SDS011;32104;50.838;4.388;2023-05-29T03:58:16;7.68;;;1.02;;
46399;SDS011;32104;50.838;4.388;2023-05-29T04:00:41;6.65;;;1.23;;
46399;SDS011;32104;50.838;4.388;2023-05-29T04:03:08;8.18;;;0.90;;
46399;SDS011;32104;50.838;4.388;2023-05-29T04:05:34;9.23;;;1.13;;
46399;SDS011;32104;50.838;4.388;2023-05-29T04:08:00;5.72;;;1.10;;
46399;SDS011;32104;50.838;4.388;2023-05-29T04:10:26;4.70;;;0.90;;
46399;SDS011;32104;50.838;4.388;2023-05-29T04:12:51;9.73;;;1.00;;
46399;SDS011;32104;50.838;4.388;2023-05-29T04:15:17;11.93;;;1.10;;
46399;SDS011;32104;50.838;4.388;2023-05-29T04:17:43;10.07;;;1.20;;
46399;SDS011;32104;50.838;4.388;2023-05-29T04:20:09;10.63;;;1.38;;
46399;SDS011;32104;50.838;4.388;2023-05-29T04:22:35;6.15;;;0.98;;
46399;SDS011;32104;50.838;4.388;2023-05-29T04:25:02;9.65;;;1.10;;
46399;SDS011;32104;50.838;4.388;2023-05-29T04:27:31;9.15;;;1.10;;
46399;SDS011;32104;50.838;4.388;2023-05-29T04:29:57;8.55;;;0.93;;
46399;SDS011;32104;50.838;4.388;2023-05-29T04:32:23;8.82;;;1.10;;
46399;SDS011;32104;50.838;4.388;2023-05-29T04:34:49;10.63;;;1.33;;
46399;SDS011;32104;50.838;4.388;2023-05-29T04:37:16;4.38;;;0.80;;
46399;SDS011;32104;50.838;4.388;2023-05-29T04:39:42;8.45;;;0.85;;
46399;SDS011;32104;50.838;4.388;2023-05-29T04:42:08;13.88;;;1.60;;
46399;SDS011;32104;50.838;4.388;2023-05-29T04:44:34;11.38;;;0.90;;
46399;SDS011;32104;50.838;4.388;2023-05-29T04:47:00;7.75;;;0.82;;
46399;SDS011;32104;50.838;4.388;2023-05-29T04:49:29;5.78;;;1.35;;
46399;SDS011;32104;50.838;4.388;2023-05-29T04:51:54;6.88;;;1.00;;
46399;SDS011;32104;50.838;4.388;2023-05-29T04:54:21;9.35;;;0.88;;
46399;SDS011;32104;50.838;4.388;2023-05-29T04:56:48;11.00;;;0.90;;
46399;SDS011;32104;50.838;4.388;2023-05-29T04:59:13;8.35;;;0.65;;
46399;SDS011;32104;50.838;4.388;2023-05-29T05:01:39;9.55;;;0.85;;
46399;SDS011;32104;50.838;4.388;2023-05-29T05:04:08;7.68;;;0.85;;
46399;SDS011;32104;50.838;4.388;2023-05-29T05:06:34;5.82;;;0.80;;
46399;SDS011;32104;50.838;4.388;2023-05-29T05:08:59;10.45;;;1.48;;
46399;SDS011;32104;50.838;4.388;2023-05-29T05:11:26;8.48;;;1.23;;
46399;SDS011;32104;50.838;4.388;2023-05-29T05:13:51;7.00;;;1.30;;
46399;SDS011;32104;50.838;4.388;2023-05-29T05:16:17;17.23;;;1.90;;
46399;SDS011;32104;50.838;4.388;2023-05-29T05:18:43;8.55;;;1.33;;
46399;SDS011;32104;50.838;4.388;2023-05-29T05:21:09;7.47;;;1.15;;
46399;SDS011;32104;50.838;4.388;2023-05-29T05:23:35;10.07;;;0.70;;
46399;SDS011;32104;50.838;4.388;2023-05-29T05:26:02;6.05;;;0.70;;
46399;SDS011;32104;50.838;4.388;2023-05-29T05:28:27;9.77;;;1.17;;
46399;SDS011;32104;50.838;4.388;2023-05-29T05:30:53;6.75;;;1.05;;
46399;SDS011;32104;50.838;4.388;2023-05-29T05:33:19;15.68;;;1.00;;
46399;SDS011;32104;50.838;4.388;2023-05-29T05:35:45;8.05;;;1.00;;
46399;SDS011;32104;50.838;4.388;2023-05-29T05:38:11;10.90;;;1.40;;
46399;SDS011;32104;50.838;4.388;2023-05-29T05:40:37;11.60;;;1.10;;
46399;SDS011;32104;50.838;4.388;2023-05-29T05:43:03;9.73;;;1.50;;
46399;SDS011;32104;50.838;4.388;2023-05-29T05:45:28;4.53;;;1.10;;
46399;SDS011;32104;50.838;4.388;2023-05-29T05:47:56;6.93;;;1.10;;
46399;SDS011;32104;50.838;4.388;2023-05-29T05:50:22;5.65;;;0.85;;
46399;SDS011;32104;50.838;4.388;2023-05-29T05:52:49;4.43;;;1.17;;
46399;SDS011;32104;50.838;4.388;2023-05-29T05:55:15;9.90;;;1.42;;
46399;SDS011;32104;50.838;4.388;2023-05-29T05:57:41;9.52;;;0.82;;
46399;SDS011;32104;50.838;4.388;2023-05-29T06:00:07;7.30;;;1.15;;
46399;SDS011;32104;50.838;4.388;2023-05-29T06:02:39;10.57;;;1.25;;
46399;SDS011;32104;50.838;4.388;2023-05-29T06:05:09;7.50;;;0.70;;
46399;SDS011;32104;50.838;4.388;2023-05-29T06:07:36;18.90;;;1.30;;
46399;SDS011;32104;50.838;4.388;2023-05-29T06:10:03;5.15;;;1.05;;
46399;SDS011;32104;50.838;4.388;2023-05-29T06:12:29;10.73;;;0.90;;
46399;SDS011;32104;50.838;4.388;2023-05-29T06:14:55;5.05;;;0.80;;
46399;SDS011;32104;50.838;4.388;2023-05-29T06:17:21;5.70;;;0.95;;
46399;SDS011;32104;50.838;4.388;2023-05-29T06:19:48;16.27;;;1.40;;
46399;SDS011;32104;50.838;4.388;2023-05-29T06:22:15;9.25;;;1.30;;
46399;SDS011;32104;50.838;4.388;2023-05-29T06:24:40;5.97;;;0.90;;
46399;SDS011;32104;50.838;4.388;2023-05-29T06:27:06;7.55;;;1.00;;
46399;SDS011;32104;50.838;4.388;2023-05-29T06:29:32;10.90;;;1.38;;
46399;SDS011;32104;50.838;4.388;2023-05-29T06:31:58;10.13;;;1.15;;
46399;SDS011;32104;50.838;4.388;2023-05-29T06:34:24;9.68;;;0.90;;
46399;SDS011;32104;50.838;4.388;2023-05-29T06:36:50;7.35;;;0.90;;
46399;SDS011;32104;50.838;4.388;2023-05-29T06:39:16;4.18;;;1.00;;
46399;SDS011;32104;50.838;4.388;2023-05-29T06:41:43;7.47;;;0.90;;
46399;SDS011;32104;50.838;4.388;2023-05-29T06:44:10;4.80;;;0.85;;
46399;SDS011;32104;50.838;4.388;2023-05-29T06:46:35;10.18;;;0.93;;
46399;SDS011;32104;50.838;4.388;2023-05-29T06:49:01;3.65;;;0.80;;
46399;SDS011;32104;50.838;4.388;2023-05-29T06:51:27;7.97;;;1.38;;
46399;SDS011;32104;50.838;4.388;2023-05-29T06:53:54;6.00;;;1.00;;
46399;SDS011;32104;50.838;4.388;2023-05-29T06:56:20;8.32;;;1.52;;
46399;SDS011;32104;50.838;4.388;2023-05-29T06:58:46;10.23;;;1.30;;
46399;SDS011;32104;50.838;4.388;2023-05-29T07:01:11;7.25;;;1.00;;
46399;SDS011;32104;50.838;4.388;2023-05-29T07:03:37;9.57;;;1.58;;
46399;SDS011;32104;50.838;4.388;2023-05-29T07:11:14;7.47;;;0.88;;
46399;SDS011;32104;50.838;4.388;2023-05-29T07:16:35;7.65;;;1.20;;
46399;SDS011;32104;50.838;4.388;2023-05-29T07:29:24;4.53;;;0.90;;
46399;SDS011;32104;50.838;4.388;2023-05-29T07:34:28;6.13;;;0.90;;
46399;SDS011;32104;50.838;4.388;2023-05-29T07:39:31;9.37;;;1.00;;
46399;SDS011;32104;50.838;4.388;2023-05-29T07:55:06;6.53;;;1.00;;
46399;SDS011;32104;50.838;4.388;2023-05-29T08:06:18;12.23;;;1.00;;
46399;SDS011;32104;50.838;4.388;2023-05-29T08:17:25;5.40;;;1.00;;
46399;SDS011;32104;50.838;4.388;2023-05-29T08:19:54;3.30;;;0.57;;
46399;SDS011;32104;50.838;4.388;2023-05-29T08:25:01;4.78;;;0.98;;
46399;SDS011;32104;50.838;4.388;2023-05-29T08:27:34;5.20;;;0.57;;
46399;SDS011;32104;50.838;4.388;2023-05-29T08:30:04;10.43;;;1.05;;
46399;SDS011;32104;50.838;4.388;2023-05-29T08:39:20;6.97;;;1.25;;
46399;SDS011;32104;50.838;4.388;2023-05-29T08:42:13;8.38;;;0.70;;
46399;SDS011;32104;50.838;4.388;2023-05-29T08:44:57;5.65;;;0.70;;
46399;SDS011;32104;50.838;4.388;2023-05-29T08:50:07;6.75;;;1.20;;
46399;SDS011;32104;50.838;4.388;2023-05-29T08:52:43;3.53;;;0.68;;
46399;SDS011;32104;50.838;4.388;2023-05-29T08:55:09;15.55;;;0.90;;
46399;SDS011;32104;50.838;4.388;2023-05-29T08:57:36;8.27;;;0.80;;
46399;SDS011;32104;50.838;4.388;2023-05-29T09:19:08;8.50;;;1.00;;
46399;SDS011;32104;50.838;4.388;2023-05-29T09:21:59;6.97;;;0.85;;
46399;SDS011;32104;50.838;4.388;2023-05-29T09:28:01;6.20;;;0.77;;
46399;SDS011;32104;50.838;4.388;2023-05-29T09:38:37;8.85;;;0.90;;
46399;SDS011;32104;50.838;4.388;2023-05-29T09:44:03;6.95;;;1.17;;
46399;SDS011;32104;50.838;4.388;2023-05-29T09:56:23;9.60;;;0.85;;
46399;SDS011;32104;50.838;4.388;2023-05-29T10:08:03;4.07;;;0.80;;
46399;SDS011;32104;50.838;4.388;2023-05-29T10:20:10;5.47;;;0.80;;
46399;SDS011;32104;50.838;4.388;2023-05-29T10:59:36;6.85;;;0.90;;
46399;SDS011;32104;50.838;4.388;2023-05-29T11:09:40;6.00;;;0.90;;
46399;SDS011;32104;50.838;4.388;2023-05-29T11:15:11;7.10;;;0.93;;
46399;SDS011;32104;50.838;4.388;2023-05-29T11:17:58;6.28;;;1.05;;
46399;SDS011;32104;50.838;4.388;2023-05-29T11:20:57;8.55;;;0.70;;
46399;SDS011;32104;50.838;4.388;2023-05-29T11:23:48;11.23;;;0.82;;
46399;SDS011;32104;50.838;4.388;2023-05-29T11:26:31;9.82;;;0.68;;
46399;SDS011;32104;50.838;4.388;2023-05-29T11:29:06;2.75;;;0.82;;
46399;SDS011;32104;50.838;4.388;2023-05-29T11:42:46;12.43;;;0.95;;
46399;SDS011;32104;50.838;4.388;2023-05-29T11:48:21;5.95;;;0.70;;
46399;SDS011;32104;50.838;4.388;2023-05-29T11:51:04;6.03;;;0.77;;
46399;SDS011;32104;50.838;4.388;2023-05-29T11:56:29;5.72;;;1.00;;
46399;SDS011;32104;50.838;4.388;2023-05-29T11:59:10;11.80;;;0.93;;
46399;SDS011;32104;50.838;4.388;2023-05-29T12:01:51;8.75;;;0.70;;
46399;SDS011;32104;50.838;4.388;2023-05-29T12:07:16;5.60;;;0.70;;
46399;SDS011;32104;50.838;4.388;2023-05-29T12:09:51;4.22;;;0.70;;
46399;SDS011;32104;50.838;4.388;2023-05-29T12:15:09;10.35;;;1.08;;
46399;SDS011;32104;50.838;4.388;2023-05-29T12:29:07;3.72;;;0.70;;
46399;SDS011;32104;50.838;4.388;2023-05-29T12:31:36;3.97;;;0.90;;
46399;SDS011;32104;50.838;4.388;2023-05-29T12:37:07;6.57;;;0.70;;
46399;SDS011;32104;50.838;4.388;2023-05-29T12:39:35;14.52;;;0.95;;
46399;SDS011;32104;50.838;4.388;2023-05-29T12:42:01;4.65;;;0.70;;
46399;SDS011;32104;50.838;4.388;2023-05-29T12:44:27;3.38;;;0.80;;
46399;SDS011;32104;50.838;4.388;2023-05-29T12:49:27;5.35;;;0.68;;
46399;SDS011;32104;50.838;4.388;2023-05-29T12:52:04;5.60;;;0.80;;
46399;SDS011;32104;50.838;4.388;2023-05-29T12:54:45;4.85;;;0.70;;
46399;SDS011;32104;50.838;4.388;2023-05-29T12:57:13;4.82;;;0.60;;
46399;SDS011;32104;50.838;4.388;2023-05-29T12:59:43;4.32;;;0.80;;
46399;SDS011;32104;50.838;4.388;2023-05-29T13:02:14;4.10;;;0.80;;
46399;SDS011;32104;50.838;4.388;2023-05-29T13:04:47;3.78;;;0.60;;
46399;SDS011;32104;50.838;4.388;2023-05-29T13:07:16;4.30;;;0.82;;
46399;SDS011;32104;50.838;4.388;2023-05-29T13:09:53;7.93;;;0.90;;
46399;SDS011;32104;50.838;4.388;2023-05-29T13:12:32;6.95;;;0.68;;
46399;SDS011;32104;50.838;4.388;2023-05-29T13:17:36;6.07;;;1.10;;
46399;SDS011;32104;50.838;4.388;2023-05-29T13:20:11;5.57;;;0.88;;
46399;SDS011;32104;50.838;4.388;2023-05-29T13:22:46;4.72;;;0.75;;
46399;SDS011;32104;50.838;4.388;2023-05-29T13:25:29;6.80;;;1.15;;
46399;SDS011;32104;50.838;4.388;2023-05-29T13:36:25;7.50;;;0.80;;
46399;SDS011;32104;50.838;4.388;2023-05-29T13:38:57;5.78;;;0.93;;
46399;SDS011;32104;50.838;4.388;2023-05-29T13:44:23;10.73;;;0.57;;
46399;SDS011;32104;50.838;4.388;2023-05-29T13:46:57;5.60;;;1.20;;
46399;SDS011;32104;50.838;4.388;2023-05-29T13:49:51;5.97;;;0.75;;
46399;SDS011;32104;50.838;4.388;2023-05-29T13:52:37;5.30;;;0.95;;
46399;SDS011;32104;50.838;4.388;2023-05-29T13:55:24;2.63;;;0.73;;
46399;SDS011;32104;50.838;4.388;2023-05-29T14:00:57;3.78;;;0.90;;
46399;SDS011;32104;50.838;4.388;2023-05-29T14:03:38;2.00;;;0.57;;
46399;SDS011;32104;50.838;4.388;2023-05-29T14:12:13;2.47;;;0.63;;
46399;SDS011;32104;50.838;4.388;2023-05-29T14:26:45;8.90;;;0.65;;
46399;SDS011;32104;50.838;4.388;2023-05-29T14:44:14;2.85;;;0.85;;
46399;SDS011;32104;50.838;4.388;2023-05-29T14:46:44;6.18;;;1.00;;
46399;SDS011;32104;50.838;4.388;2023-05-29T14:57:31;3.10;;;0.70;;
46399;SDS011;32104;50.838;4.388;2023-05-29T14:59:59;6.10;;;0.90;;
46399;SDS011;32104;50.838;4.388;2023-05-29T15:05:29;3.28;;;0.80;;
46399;SDS011;32104;50.838;4.388;2023-05-29T15:08:03;4.22;;;0.90;;
46399;SDS011;32104;50.838;4.388;2023-05-29T15:10:52;5.75;;;0.90;;
46399;SDS011;32104;50.838;4.388;2023-05-29T15:13:21;8.18;;;0.80;;
46399;SDS011;32104;50.838;4.388;2023-05-29T15:15:56;8.32;;;1.15;;
46399;SDS011;32104;50.838;4.388;2023-05-29T15:18:26;5.72;;;0.85;;
46399;SDS011;32104;50.838;4.388;2023-05-29T15:20:52;4.65;;;0.80;;
46399;SDS011;32104;50.838;4.388;2023-05-29T15:23:18;5.47;;;0.82;;
46399;SDS011;32104;50.838;4.388;2023-05-29T15:25:47;7.82;;;0.77;;
46399;SDS011;32104;50.838;4.388;2023-05-29T15:28:12;6.28;;;0.90;;
46399;SDS011;32104;50.838;4.388;2023-05-29T15:30:38;9.73;;;0.70;;
46399;SDS011;32104;50.838;4.388;2023-05-29T15:33:04;7.43;;;0.70;;
46399;SDS011;32104;50.838;4.388;2023-05-29T15:35:33;7.60;;;0.70;;
46399;SDS011;32104;50.838;4.388;2023-05-29T15:38:00;7.32;;;0.90;;
46399;SDS011;32104;50.838;4.388;2023-05-29T15:40:25;4.68;;;0.82;;
46399;SDS011;32104;50.838;4.388;2023-05-29T15:42:51;7.15;;;0.98;;
46399;SDS011;32104;50.838;4.388;2023-05-29T15:45:17;3.85;;;0.80;;
46399;SDS011;32104;50.838;4.388;2023-05-29T15:47:44;2.92;;;0.80;;
46399;SDS011;32104;50.838;4.388;2023-05-29T15:50:10;5.13;;;0.90;;
46399;SDS011;32104;50.838;4.388;2023-05-29T15:52:37;4.32;;;0.70;;
46399;SDS011;32104;50.838;4.388;2023-05-29T15:55:03;3.75;;;0.60;;
46399;SDS011;32104;50.838;4.388;2023-05-29T15:57:29;8.40;;;0.98;;
46399;SDS011;32104;50.838;4.388;2023-05-29T15:59:55;2.85;;;0.70;;
46399;SDS011;32104;50.838;4.388;2023-05-29T16:02:22;5.93;;;1.27;;
46399;SDS011;32104;50.838;4.388;2023-05-29T16:04:47;2.65;;;0.80;;
46399;SDS011;32104;50.838;4.388;2023-05-29T16:07:13;3.35;;;0.85;;
46399;SDS011;32104;50.838;4.388;2023-05-29T16:09:40;4.65;;;1.38;;
46399;SDS011;32104;50.838;4.388;2023-05-29T16:12:07;7.85;;;1.00;;
46399;SDS011;32104;50.838;4.388;2023-05-29T16:14:35;4.72;;;0.80;;
46399;SDS011;32104;50.838;4.388;2023-05-29T16:17:00;10.68;;;0.70;;
46399;SDS011;32104;50.838;4.388;2023-05-29T16:19:26;3.58;;;0.70;;
46399;SDS011;32104;50.838;4.388;2023-05-29T16:21:53;1.85;;;0.47;;
46399;SDS011;32104;50.838;4.388;2023-05-29T16:24:18;5.45;;;0.57;;
46399;SDS011;32104;50.838;4.388;2023-05-29T16:26:45;6.78;;;0.70;;
46399;SDS011;32104;50.838;4.388;2023-05-29T16:29:11;6.38;;;0.80;;
46399;SDS011;32104;50.838;4.388;2023-05-29T16:31:37;2.22;;;0.60;;
46399;SDS011;32104;50.838;4.388;2023-05-29T16:34:03;2.92;;;0.57;;
46399;SDS011;32104;50.838;4.388;2023-05-29T16:36:30;8.32;;;0.85;;
46399;SDS011;32104;50.838;4.388;2023-05-29T16:38:56;5.35;;;0.80;;
46399;SDS011;32104;50.838;4.388;2023-05-29T16:41:22;9.55;;;0.98;;
46399;SDS011;32104;50.838;4.388;2023-05-29T16:43:53;9.45;;;1.77;;
46399;SDS011;32104;50.838;4.388;2023-05-29T16:46:19;3.83;;;1.50;;
46399;SDS011;32104;50.838;4.388;2023-05-29T16:48:45;5.05;;;1.35;;
46399;SDS011;32104;50.838;4.388;2023-05-29T16:51:11;6.82;;;1.60;;
46399;SDS011;32104;50.838;4.388;2023-05-29T16:53:36;12.50;;;2.03;;
46399;SDS011;32104;50.838;4.388;2023-05-29T16:56:04;9.60;;;1.52;;
46399;SDS011;32104;50.838;4.388;2023-05-29T16:58:31;10.35;;;1.80;;
46399;SDS011;32104;50.838;4.388;2023-05-29T17:00:58;12.15;;;0.88;;
46399;SDS011;32104;50.838;4.388;2023-05-29T17:03:25;5.97;;;0.95;;
46399;SDS011;32104;50.838;4.388;2023-05-29T17:05:52;3.75;;;0.60;;
46399;SDS011;32104;50.838;4.388;2023-05-29T17:08:19;4.18;;;0.80;;
46399;SDS011;32104;50.838;4.388;2023-05-29T17:10:45;8.63;;;1.25;;
46399;SDS011;32104;50.838;4.388;2023-05-29T17:13:13;7.50;;;0.80;;
46399;SDS011;32104;50.838;4.388;2023-05-29T17:15:39;8.82;;;0.80;;
46399;SDS011;32104;50.838;4.388;2023-05-29T17:18:06;6.18;;;1.25;;
46399;SDS011;32104;50.838;4.388;2023-05-29T17:20:31;9.68;;;0.98;;
46399;SDS011;32104;50.838;4.388;2023-05-29T17:22:57;3.75;;;0.60;;
46399;SDS011;32104;50.838;4.388;2023-05-29T17:25:23;5.40;;;0.70;;
46399;SDS011;32104;50.838;4.388;2023-05-29T17:27:49;1.75;;;0.50;;
46399;SDS011;32104;50.838;4.388;2023-05-29T17:30:15;8.18;;;0.80;;
46399;SDS011;32104;50.838;4.388;2023-05-29T17:32:42;4.78;;;0.80;;
46399;SDS011;32104;50.838;4.388;2023-05-29T17:35:10;6.70;;;0.80;;
46399;SDS011;32104;50.838;4.388;2023-05-29T17:37:38;11.93;;;0.93;;
46399;SDS011;32104;50.838;4.388;2023-05-29T17:40:04;1.70;;;0.82;;
46399;SDS011;32104;50.838;4.388;2023-05-29T17:42:30;3.33;;;0.52;;
46399;SDS011;32104;50.838;4.388;2023-05-29T17:44:56;8.75;;;0.90;;
46399;SDS011;32104;50.838;4.388;2023-05-29T17:47:21;4.80;;;0.85;;
46399;SDS011;32104;50.838;4.388;2023-05-29T17:49:47;8.63;;;0.68;;
46399;SDS011;32104;50.838;4.388;2023-05-29T17:52:13;2.45;;;0.63;;
46399;SDS011;32104;50.838;4.388;2023-05-29T17:54:39;7.93;;;0.82;;
46399;SDS011;32104;50.838;4.388;2023-05-29T17:57:05;8.10;;;0.70;;
46399;SDS011;32104;50.838;4.388;2023-05-29T17:59:32;5.50;;;0.75;;
46399;SDS011;32104;50.838;4.388;2023-05-29T18:01:58;9.23;;;0.80;;
46399;SDS011;32104;50.838;4.388;2023-05-29T18:04:25;6.30;;;0.95;;
46399;SDS011;32104;50.838;4.388;2023-05-29T18:06:51;6.45;;;0.60;;
46399;SDS011;32104;50.838;4.388;2023-05-29T18:09:18;9.13;;;0.70;;
46399;SDS011;32104;50.838;4.388;2023-05-29T18:11:45;7.63;;;0.63;;
46399;SDS011;32104;50.838;4.388;2023-05-29T18:14:11;4.95;;;0.77;;
46399;SDS011;32104;50.838;4.388;2023-05-29T18:16:37;4.50;;;0.50;;
46399;SDS011;32104;50.838;4.388;2023-05-29T18:19:05;6.05;;;0.77;;
46399;SDS011;32104;50.838;4.388;2023-05-29T18:21:35;3.97;;;0.80;;
46399;SDS011;32104;50.838;4.388;2023-05-29T18:24:01;4.57;;;0.65;;
46399;SDS011;32104;50.838;4.388;2023-05-29T18:28:56;8.27;;;0.75;;
